Time;durP1;ratioP1;P1;durP2;ratioP2;P2;SDS_P1;SDS_P2;PMS_P1;PMS_P2;Temp;Humidity;BMP_temperature;BMP_pressure;BME280_temperature;BME280_humidity;BME280_pressure;Samples;Min_cycle;Max_cycle;Signal;HPM_P1;HPM_P2
2022/03/31 00:00:16;;;;;;;22.70;19.20;;;7.60;52.00;;;;;;5012329;28;20841;-70
2022/03/31 00:02:42;;;;;;;26.90;19.23;;;7.60;52.30;;;;;;5011949;28;20443;-70
2022/03/31 00:05:08;;;;;;;31.50;20.70;;;7.60;52.50;;;;;;5011876;28;20450;-70
2022/03/31 00:07:34;;;;;;;22.03;16.20;;;7.70;51.90;;;;;;5011596;28;20450;-70
2022/03/31 00:10:00;;;;;;;31.33;19.67;;;7.60;52.40;;;;;;5011828;28;20880;-70
2022/03/31 00:12:25;;;;;;;26.03;18.70;;;7.50;53.30;;;;;;5011822;28;20203;-70
2022/03/31 00:14:51;;;;;;;29.17;17.43;;;7.30;54.60;;;;;;5011901;28;20918;-70
2022/03/31 00:17:16;;;;;;;27.43;19.90;;;7.40;54.80;;;;;;5011536;28;20687;-70
2022/03/31 00:19:42;;;;;;;29.97;22.20;;;7.40;53.80;;;;;;5011547;28;20217;-70
2022/03/31 00:22:08;;;;;;;28.20;19.03;;;7.30;54.70;;;;;;5013559;28;20635;-70
2022/03/31 00:24:34;;;;;;;31.37;19.17;;;7.40;55.10;;;;;;5015734;28;20186;-70
2022/03/31 00:26:59;;;;;;;34.73;20.70;;;7.40;55.00;;;;;;5015425;28;20175;-70
2022/03/31 00:29:25;;;;;;;25.70;18.50;;;7.20;54.10;;;;;;5015548;28;20510;-70
2022/03/31 00:31:50;;;;;;;30.53;22.13;;;7.10;55.40;;;;;;5015528;28;20208;-70
2022/03/31 00:34:16;;;;;;;32.20;22.87;;;7.00;56.50;;;;;;5015406;28;20211;-70
2022/03/31 00:36:42;;;;;;;28.47;20.37;;;7.00;57.30;;;;;;5016042;28;20174;-71
2022/03/31 00:41:52;;;;;;;29.48;22.08;;;7.20;54.90;;;;;;5015480;28;20203;-70
2022/03/31 00:44:18;;;;;;;29.27;20.37;;;7.20;55.20;;;;;;5015395;28;20513;-70
2022/03/31 00:46:49;;;;;;;29.17;17.60;;;7.30;54.60;;;;;;5015062;28;20414;-70
2022/03/31 00:49:19;;;;;;;29.40;21.35;;;7.20;53.80;;;;;;5014897;28;20570;-70
2022/03/31 00:51:46;;;;;;;31.00;20.67;;;7.10;55.10;;;;;;5015476;28;20168;-70
2022/03/31 00:54:12;;;;;;;22.70;17.15;;;7.20;55.60;;;;;;5015072;28;20635;-70
2022/03/31 00:56:39;;;;;;;28.93;19.07;;;7.20;55.20;;;;;;5014822;28;20185;-70
2022/03/31 00:59:06;;;;;;;26.38;19.65;;;7.30;54.90;;;;;;5014852;28;20471;-70
2022/03/31 01:01:39;;;;;;;26.10;19.90;;;7.30;53.80;;;;;;5015278;28;20202;-70
2022/03/31 01:04:06;;;;;;;23.90;17.80;;;7.40;52.50;;;;;;5015179;28;20409;-70
2022/03/31 01:06:32;;;;;;;22.60;14.63;;;7.40;53.30;;;;;;5014674;28;20423;-70
2022/03/31 01:08:58;;;;;;;26.40;19.20;;;7.60;52.00;;;;;;5014885;28;20808;-70
2022/03/31 01:11:24;;;;;;;25.33;19.03;;;7.80;50.50;;;;;;5014971;28;20227;-70
2022/03/31 01:13:50;;;;;;;26.50;21.30;;;7.70;50.40;;;;;;5014720;28;21037;-70
2022/03/31 01:16:16;;;;;;;27.30;20.03;;;7.50;50.70;;;;;;5014652;28;20177;-70
2022/03/31 01:18:42;;;;;;;26.43;19.73;;;7.20;53.00;;;;;;5014290;28;20321;-70
2022/03/31 01:21:09;;;;;;;23.50;17.40;;;7.20;54.50;;;;;;5014736;28;20888;-70
2022/03/31 01:23:35;;;;;;;33.05;21.17;;;7.30;53.30;;;;;;5014509;28;20494;-71
2022/03/31 01:26:01;;;;;;;28.83;21.43;;;7.30;53.90;;;;;;5014377;28;20260;-71
2022/03/31 01:28:27;;;;;;;38.47;21.17;;;7.10;54.80;;;;;;5013964;28;20521;-71
2022/03/31 01:30:52;;;;;;;35.47;20.33;;;7.20;54.90;;;;;;5014249;28;20193;-71
2022/03/31 01:33:18;;;;;;;28.03;20.73;;;7.30;55.00;;;;;;5013972;28;20206;-71
2022/03/31 01:35:43;;;;;;;37.80;24.50;;;7.30;54.90;;;;;;5014099;28;20179;-71
2022/03/31 01:38:09;;;;;;;24.93;20.47;;;7.20;55.00;;;;;;5014059;28;20242;-71
2022/03/31 01:40:35;;;;;;;35.00;21.33;;;7.20;55.60;;;;;;5013061;28;20530;-71
2022/03/31 01:43:02;;;;;;;36.20;22.03;;;7.30;55.20;;;;;;5014095;28;20645;-71
2022/03/31 01:45:27;;;;;;;24.70;20.42;;;7.20;56.10;;;;;;5013882;28;20942;-70
2022/03/31 01:47:54;;;;;;;33.37;20.27;;;7.10;54.40;;;;;;5013706;28;20185;-71
2022/03/31 01:50:19;;;;;;;25.77;20.40;;;7.10;56.10;;;;;;5013838;28;20255;-71
2022/03/31 01:52:45;;;;;;;30.97;22.07;;;7.20;53.90;;;;;;5013761;28;20469;-70
2022/03/31 01:55:11;;;;;;;27.20;20.23;;;7.20;54.90;;;;;;5013983;28;20218;-68
2022/03/31 01:57:37;;;;;;;34.70;23.80;;;7.20;54.90;;;;;;5013600;28;20447;-69
2022/03/31 02:00:05;;;;;;;32.93;19.07;;;7.20;54.90;;;;;;5013652;28;20194;-69
2022/03/31 02:02:30;;;;;;;28.58;18.58;;;7.10;55.90;;;;;;5013385;28;20473;-69
2022/03/31 02:04:57;;;;;;;26.83;16.87;;;7.20;55.20;;;;;;5012410;28;20667;-69
2022/03/31 02:07:22;;;;;;;29.83;19.07;;;7.40;54.00;;;;;;5013379;28;20191;-69
2022/03/31 02:09:48;;;;;;;28.57;17.63;;;7.50;52.20;;;;;;5013593;28;20855;-69
2022/03/31 02:12:13;;;;;;;24.33;19.47;;;7.70;51.30;;;;;;5013508;28;20704;-69
2022/03/31 02:14:41;;;;;;;29.63;20.50;;;7.70;50.40;;;;;;5013417;28;20174;-69
2022/03/31 02:17:07;;;;;;;31.73;18.00;;;7.80;50.50;;;;;;5013391;28;20259;-69
2022/03/31 02:19:34;;;;;;;25.53;20.73;;;7.80;49.60;;;;;;5013163;28;20461;-69
2022/03/31 02:21:59;;;;;;;20.10;15.87;;;7.70;49.10;;;;;;5013439;28;20414;-69
2022/03/31 02:24:25;;;;;;;20.23;17.27;;;7.70;50.40;;;;;;5012258;28;21074;-69
2022/03/31 02:26:51;;;;;;;22.20;17.13;;;7.70;49.50;;;;;;5013066;28;20726;-69
2022/03/31 02:29:18;;;;;;;21.33;15.40;;;7.70;50.40;;;;;;5012165;28;20298;-69
2022/03/31 02:31:46;;;;;;;19.60;16.27;;;7.70;51.10;;;;;;5013313;28;20175;-69
2022/03/31 02:34:12;;;;;;;17.63;14.10;;;7.70;50.40;;;;;;5013437;28;20485;-69
2022/03/31 02:36:40;;;;;;;22.83;16.40;;;7.80;50.50;;;;;;5012902;28;20417;-69
2022/03/31 02:39:06;;;;;;;21.90;15.70;;;7.80;49.90;;;;;;5013871;28;20438;-69
2022/03/31 02:41:32;;;;;;;28.03;17.10;;;7.90;50.60;;;;;;5015304;28;20466;-69
2022/03/31 02:43:57;;;;;;;25.13;18.13;;;8.00;49.50;;;;;;5013933;28;20427;-68
2022/03/31 02:46:25;;;;;;;25.40;17.83;;;8.10;48.80;;;;;;5013519;28;20233;-69
2022/03/31 02:48:51;;;;;;;21.70;16.60;;;7.90;48.50;;;;;;5014344;28;20213;-69
2022/03/31 02:51:16;;;;;;;27.80;20.90;;;7.70;50.40;;;;;;5013800;28;20927;-68
2022/03/31 02:56:26;;;;;;;30.17;21.40;;;7.50;50.20;;;;;;5014452;28;20200;-68
2022/03/31 02:58:52;;;;;;;37.03;21.40;;;7.50;51.00;;;;;;5015053;28;20437;-68
2022/03/31 03:01:17;;;;;;;34.43;23.43;;;7.30;52.50;;;;;;5014833;28;20633;-68
2022/03/31 03:03:43;;;;;;;41.23;24.10;;;7.10;54.80;;;;;;5014195;28;20190;-69
2022/03/31 03:06:09;;;;;;;33.70;23.90;;;6.90;56.00;;;;;;5014293;28;20183;-68
2022/03/31 03:08:35;;;;;;;35.25;21.65;;;6.90;57.70;;;;;;5015731;28;20172;-69
2022/03/31 03:11:00;;;;;;;41.23;26.50;;;6.90;57.10;;;;;;5016173;28;20720;-68
2022/03/31 03:13:26;;;;;;;36.47;26.33;;;6.90;56.90;;;;;;5015298;28;20248;-68
2022/03/31 03:15:51;;;;;;;31.40;24.83;;;6.90;57.10;;;;;;5014702;28;20465;-69
2022/03/31 03:18:18;;;;;;;33.73;25.00;;;6.80;57.30;;;;;;5014368;28;20186;-68
2022/03/31 03:20:44;;;;;;;32.00;22.50;;;6.90;57.90;;;;;;5015264;28;20596;-69
2022/03/31 03:23:10;;;;;;;42.43;26.03;;;7.10;58.40;;;;;;5014142;28;20409;-68
2022/03/31 03:25:35;;;;;;;35.83;27.40;;;7.00;57.30;;;;;;5012055;28;20527;-69
2022/03/31 03:28:02;;;;;;;33.23;24.53;;;6.90;55.80;;;;;;5012949;28;20179;-69
2022/03/31 03:30:28;;;;;;;50.60;22.17;;;6.60;57.40;;;;;;5012855;28;20201;-68
2022/03/31 03:32:53;;;;;;;32.93;21.40;;;6.60;58.20;;;;;;5012975;28;20204;-69
2022/03/31 03:35:19;;;;;;;31.77;22.97;;;6.60;58.00;;;;;;5014542;28;20174;-69
2022/03/31 03:37:46;;;;;;;35.23;25.33;;;6.60;56.10;;;;;;5015020;28;20184;-68
2022/03/31 03:40:13;;;;;;;35.60;18.98;;;6.50;57.40;;;;;;5015968;28;20471;-69
2022/03/31 03:42:39;;;;;;;28.90;20.75;;;6.60;55.80;;;;;;5015705;28;20187;-69
2022/03/31 03:45:06;;;;;;;34.03;20.93;;;6.60;55.80;;;;;;5016013;28;20258;-68
2022/03/31 03:47:32;;;;;;;27.98;20.65;;;6.60;54.40;;;;;;5015214;28;20422;-68
2022/03/31 03:49:58;;;;;;;26.07;21.80;;;6.70;54.50;;;;;;5013706;28;20284;-69
2022/03/31 03:52:23;;;;;;;33.40;20.93;;;6.50;55.60;;;;;;5012272;28;20923;-69
2022/03/31 03:54:50;;;;;;;28.37;18.97;;;6.70;55.00;;;;;;5014561;28;20175;-69
2022/03/31 03:57:15;;;;;;;27.43;19.00;;;6.80;53.40;;;;;;5014749;28;20419;-69
2022/03/31 03:59:41;;;;;;;30.17;21.10;;;6.70;52.80;;;;;;5017859;28;20433;-68
2022/03/31 04:02:07;;;;;;;35.20;19.53;;;6.80;51.80;;;;;;5016156;28;20219;-69
2022/03/31 04:04:32;;;;;;;28.40;22.10;;;6.60;52.90;;;;;;5017093;28;20804;-70
2022/03/31 04:06:59;;;;;;;29.17;21.03;;;6.70;53.30;;;;;;5017393;28;20263;-68
2022/03/31 04:09:25;;;;;;;29.63;20.35;;;6.70;52.80;;;;;;5017494;28;20270;-68
2022/03/31 04:11:51;;;;;;;31.97;20.60;;;6.60;53.70;;;;;;5017999;28;20191;-69
2022/03/31 04:14:17;;;;;;;29.17;23.23;;;6.70;54.10;;;;;;5017104;28;20263;-68
2022/03/31 04:16:42;;;;;;;24.55;19.63;;;6.70;53.40;;;;;;5016475;28;20413;-68
2022/03/31 04:19:08;;;;;;;32.73;23.20;;;6.50;52.70;;;;;;5016731;28;20213;-69
2022/03/31 04:21:35;;;;;;;37.63;25.60;;;6.60;53.80;;;;;;5016556;28;20173;-69
2022/03/31 04:24:01;;;;;;;25.45;19.98;;;6.60;52.40;;;;;;5016668;28;20634;-69
2022/03/31 04:26:27;;;;;;;32.33;23.15;;;6.60;53.00;;;;;;5016322;28;20185;-69
2022/03/31 04:28:52;;;;;;;31.50;23.10;;;6.40;53.30;;;;;;5016125;28;20296;-68
2022/03/31 04:31:18;;;;;;;33.37;22.03;;;6.20;54.70;;;;;;5016319;28;20522;-68
2022/03/31 04:33:43;;;;;;;30.70;19.93;;;6.10;56.60;;;;;;5016187;28;20561;-69
2022/03/31 04:36:09;;;;;;;35.90;24.97;;;6.20;58.90;;;;;;5016285;28;20171;-69
2022/03/31 04:38:34;;;;;;;34.60;19.17;;;6.30;56.30;;;;;;5015945;28;20177;-69
2022/03/31 04:41:00;;;;;;;32.13;21.10;;;6.30;56.60;;;;;;5016166;28;20539;-69
2022/03/31 04:43:25;;;;;;;28.00;19.17;;;6.40;55.20;;;;;;5015549;28;20646;-69
2022/03/31 04:45:51;;;;;;;35.13;20.07;;;6.40;55.10;;;;;;5016258;28;20641;-69
2022/03/31 04:48:17;;;;;;;29.00;21.50;;;6.40;55.80;;;;;;5016080;28;20186;-70
2022/03/31 04:50:42;;;;;;;39.90;24.40;;;6.20;55.80;;;;;;5015954;28;20189;-68
2022/03/31 04:53:08;;;;;;;30.10;24.80;;;6.20;57.20;;;;;;5015747;28;20244;-69
2022/03/31 04:55:34;;;;;;;40.03;22.97;;;6.10;56.90;;;;;;5015443;28;20255;-69
2022/03/31 04:58:00;;;;;;;37.93;23.10;;;6.10;57.40;;;;;;5015462;28;20503;-69
2022/03/31 05:00:25;;;;;;;39.90;24.03;;;6.10;57.90;;;;;;5015950;28;20195;-69
2022/03/31 05:02:51;;;;;;;31.20;25.07;;;6.20;56.90;;;;;;5014947;28;20192;-68
2022/03/31 05:05:17;;;;;;;25.50;19.03;;;6.10;56.70;;;;;;5016181;28;20181;-68
2022/03/31 05:07:42;;;;;;;29.83;22.10;;;6.30;55.60;;;;;;5015163;28;20191;-68
2022/03/31 05:10:08;;;;;;;24.77;20.47;;;6.30;54.30;;;;;;5016308;28;20194;-69
2022/03/31 05:12:34;;;;;;;24.70;20.33;;;6.30;54.00;;;;;;5016493;28;20207;-69
2022/03/31 05:15:00;;;;;;;31.83;21.00;;;6.30;54.10;;;;;;5014943;28;20425;-69
2022/03/31 05:17:30;;;;;;;29.73;20.23;;;6.10;54.40;;;;;;5016807;28;20503;-69
2022/03/31 05:19:56;;;;;;;27.10;20.60;;;6.20;54.30;;;;;;5015926;28;20211;-69
2022/03/31 05:22:21;;;;;;;37.40;23.67;;;6.10;54.20;;;;;;5014564;28;20178;-69
2022/03/31 05:24:47;;;;;;;25.93;18.87;;;6.10;54.30;;;;;;5014475;28;20670;-68
2022/03/31 05:27:12;;;;;;;31.43;19.77;;;6.30;53.30;;;;;;5014089;28;20643;-70
2022/03/31 05:29:38;;;;;;;33.67;22.30;;;6.10;53.30;;;;;;5013200;28;20205;-70
2022/03/31 05:32:04;;;;;;;28.10;21.03;;;6.20;54.00;;;;;;5014450;28;20184;-69
2022/03/31 05:34:30;;;;;;;29.55;21.13;;;6.20;52.40;;;;;;5014195;28;20673;-68
2022/03/31 05:36:56;;;;;;;27.80;20.53;;;6.10;52.80;;;;;;5014082;28;20228;-69
2022/03/31 05:39:21;;;;;;;23.07;18.10;;;6.20;52.70;;;;;;5014359;28;20802;-69
2022/03/31 05:41:47;;;;;;;28.07;23.57;;;6.10;53.00;;;;;;5014555;28;20551;-69
2022/03/31 05:44:12;;;;;;;31.23;22.23;;;6.00;53.50;;;;;;5014563;28;20697;-68
2022/03/31 05:46:38;;;;;;;35.53;20.97;;;5.90;54.50;;;;;;5013899;28;20276;-69
2022/03/31 05:49:03;;;;;;;33.50;19.50;;;5.90;54.80;;;;;;5013806;28;20209;-69
2022/03/31 05:51:29;;;;;;;31.60;19.57;;;5.90;56.10;;;;;;5014706;28;20639;-69
2022/03/31 05:53:55;;;;;;;26.43;19.63;;;6.10;55.70;;;;;;5013994;28;20204;-69
2022/03/31 05:56:20;;;;;;;35.23;21.93;;;6.00;55.50;;;;;;5013726;28;20585;-68
2022/03/31 05:58:46;;;;;;;31.63;22.70;;;5.80;55.50;;;;;;5013703;28;20541;-68
2022/03/31 06:01:12;;;;;;;33.67;21.27;;;6.00;56.50;;;;;;5014008;28;20462;-70
2022/03/31 06:03:38;;;;;;;31.48;21.98;;;6.00;55.30;;;;;;5013849;28;20172;-70
2022/03/31 06:06:03;;;;;;;29.53;20.63;;;6.00;55.00;;;;;;5012425;28;20367;-70
2022/03/31 06:08:29;;;;;;;24.23;17.73;;;6.00;55.10;;;;;;5013695;28;20259;-70
2022/03/31 06:10:55;;;;;;;34.53;22.80;;;6.00;56.00;;;;;;5013652;28;20698;-70
2022/03/31 06:13:21;;;;;;;27.70;20.40;;;5.90;55.50;;;;;;5013445;28;20506;-70
2022/03/31 06:15:46;;;;;;;32.23;22.27;;;6.00;56.60;;;;;;5013590;28;20186;-70
2022/03/31 06:18:12;;;;;;;33.33;21.60;;;6.00;55.80;;;;;;5013561;28;20629;-70
2022/03/31 06:20:38;;;;;;;32.13;18.33;;;6.00;56.10;;;;;;5012490;28;20312;-70
2022/03/31 06:23:04;;;;;;;27.77;20.20;;;6.00;57.20;;;;;;5013427;28;20726;-70
2022/03/31 06:25:30;;;;;;;30.67;21.50;;;6.10;55.90;;;;;;5013362;28;20208;-69
2022/03/31 06:27:56;;;;;;;29.77;20.63;;;6.30;54.40;;;;;;5013093;28;20214;-67
2022/03/31 06:30:22;;;;;;;36.50;20.75;;;6.10;55.30;;;;;;5013399;28;20204;-67
2022/03/31 06:32:48;;;;;;;22.88;18.05;;;6.20;53.80;;;;;;5013572;28;20668;-69
2022/03/31 06:35:17;;;;;;;28.00;19.03;;;6.40;53.10;;;;;;5013802;28;20235;-66
2022/03/31 06:37:44;;;;;;;35.42;20.92;;;6.40;53.00;;;;;;5013251;28;20417;-68
2022/03/31 06:40:12;;;;;;;24.52;20.70;;;6.40;53.00;;;;;;5013412;28;20214;-68
2022/03/31 06:42:38;;;;;;;25.35;18.90;;;6.30;53.70;;;;;;5013190;28;20171;-67
2022/03/31 06:45:05;;;;;;;24.00;18.25;;;6.30;52.40;;;;;;5013065;28;20184;-67
2022/03/31 06:47:31;;;;;;;38.15;24.15;;;6.20;55.10;;;;;;5013129;28;20170;-67
2022/03/31 06:49:56;;;;;;;33.77;22.50;;;6.10;55.10;;;;;;5012963;28;20204;-67
2022/03/31 06:52:23;;;;;;;31.77;22.70;;;6.00;57.00;;;;;;5013096;28;20180;-68
2022/03/31 06:54:48;;;;;;;34.47;23.65;;;5.90;58.70;;;;;;5012921;28;20172;-68
2022/03/31 06:57:14;;;;;;;33.60;24.07;;;5.90;58.70;;;;;;5012733;28;20175;-68
2022/03/31 06:59:40;;;;;;;37.20;27.97;;;5.90;58.50;;;;;;5012993;28;20196;-68
2022/03/31 07:02:06;;;;;;;33.22;23.25;;;5.90;58.70;;;;;;5011455;28;20198;-67
2022/03/31 07:04:31;;;;;;;35.47;22.40;;;5.90;58.60;;;;;;5013557;28;20549;-68
2022/03/31 07:06:57;;;;;;;25.57;19.97;;;6.00;58.40;;;;;;5012572;28;20180;-67
2022/03/31 07:09:22;;;;;;;30.83;21.13;;;6.10;57.70;;;;;;5012591;28;20229;-67
2022/03/31 07:11:48;;;;;;;37.10;25.03;;;6.20;56.40;;;;;;5012260;28;20642;-67
2022/03/31 07:14:14;;;;;;;27.20;20.10;;;6.20;55.70;;;;;;5012485;28;20622;-67
2022/03/31 07:16:39;;;;;;;35.53;22.83;;;6.30;55.30;;;;;;5012368;28;20442;-68
2022/03/31 07:19:05;;;;;;;28.70;23.20;;;6.30;54.50;;;;;;5011602;28;20217;-67
2022/03/31 07:21:33;;;;;;;31.07;24.90;;;6.30;54.40;;;;;;5012050;28;20180;-67
2022/03/31 07:24:00;;;;;;;37.28;24.00;;;6.30;53.30;;;;;;5012208;28;20174;-68
2022/03/31 07:26:26;;;;;;;41.65;27.02;;;6.00;55.00;;;;;;5012191;28;20214;-67
2022/03/31 07:28:52;;;;;;;38.20;25.07;;;5.80;57.80;;;;;;5012457;28;20289;-67
2022/03/31 07:31:17;;;;;;;31.83;23.20;;;5.80;57.90;;;;;;5012125;28;20203;-67
2022/03/31 07:33:43;;;;;;;31.13;20.07;;;5.90;58.60;;;;;;5012355;28;20293;-69
2022/03/31 07:36:10;;;;;;;36.90;23.00;;;6.20;58.20;;;;;;5012511;28;20186;-68
2022/03/31 07:38:35;;;;;;;30.73;21.02;;;6.40;54.70;;;;;;5011961;28;20174;-68
2022/03/31 07:41:01;;;;;;;27.77;18.63;;;6.50;52.20;;;;;;5012304;28;20180;-67
2022/03/31 07:43:27;;;;;;;32.53;24.87;;;6.00;54.90;;;;;;4995036;28;20420;-68
2022/03/31 07:45:53;;;;;;;28.87;24.47;;;5.80;56.70;;;;;;4991365;28;20832;-68
2022/03/31 07:48:18;;;;;;;39.67;24.57;;;5.80;57.60;;;;;;4992391;28;20197;-67
2022/03/31 07:50:44;;;;;;;28.97;22.37;;;5.90;57.10;;;;;;4992552;28;20564;-67
2022/03/31 07:53:11;;;;;;;34.83;24.80;;;5.90;58.00;;;;;;4991423;28;20301;-67
2022/03/31 07:55:37;;;;;;;29.23;21.45;;;6.20;58.20;;;;;;4992522;28;20644;-66
2022/03/31 07:58:03;;;;;;;30.70;21.40;;;6.40;56.30;;;;;;4993888;28;20562;-68
2022/03/31 08:00:28;;;;;;;30.87;22.10;;;6.60;53.60;;;;;;5009217;28;20954;-67
2022/03/31 08:02:55;;;;;;;25.80;19.40;;;6.60;52.20;;;;;;5008030;28;20213;-67
2022/03/31 08:05:23;;;;;;;22.53;16.23;;;6.70;54.30;;;;;;5007942;28;20274;-67
2022/03/31 08:07:49;;;;;;;25.37;19.57;;;7.00;54.70;;;;;;5008243;28;20464;-67
2022/03/31 08:10:16;;;;;;;27.27;20.50;;;7.40;54.20;;;;;;5007716;28;20446;-67
2022/03/31 08:12:44;;;;;;;27.60;18.37;;;7.60;52.30;;;;;;5005117;28;20465;-66
2022/03/31 08:15:10;;;;;;;29.00;18.43;;;7.90;50.60;;;;;;4993626;28;20966;-70
2022/03/31 08:17:37;;;;;;;23.30;16.60;;;8.10;47.80;;;;;;4989114;28;20918;-68
2022/03/31 08:20:03;;;;;;;21.80;15.53;;;8.40;44.90;;;;;;4993323;28;20466;-68
2022/03/31 08:22:29;;;;;;;22.63;15.83;;;8.40;41.90;;;;;;4992181;28;20419;-69
2022/03/31 08:24:57;;;;;;;26.00;15.97;;;8.50;41.70;;;;;;5008099;28;20993;-69
2022/03/31 08:27:26;;;;;;;24.63;15.43;;;8.50;41.00;;;;;;5007622;28;20596;-68
2022/03/31 08:29:51;;;;;;;24.80;19.23;;;8.10;43.20;;;;;;5002797;28;20469;-68
2022/03/31 08:32:17;;;;;;;29.30;16.27;;;8.10;42.20;;;;;;4995798;28;20432;-68
2022/03/31 08:34:42;;;;;;;22.87;16.83;;;8.00;41.40;;;;;;5005467;28;20694;-68
2022/03/31 08:37:08;;;;;;;18.80;17.10;;;7.70;44.80;;;;;;5006567;28;20227;-68
2022/03/31 08:39:33;;;;;;;29.13;19.07;;;7.70;45.40;;;;;;5006189;28;20200;-68
2022/03/31 08:41:59;;;;;;;26.57;15.47;;;7.70;45.90;;;;;;4987398;28;20185;-68
2022/03/31 08:44:25;;;;;;;22.13;16.87;;;8.00;43.80;;;;;;4992203;28;20195;-67
2022/03/31 08:46:51;;;;;;;28.00;19.20;;;7.70;44.50;;;;;;5010512;28;20533;-67
2022/03/31 08:49:17;;;;;;;28.80;17.67;;;7.20;46.30;;;;;;5010678;28;20521;-68
2022/03/31 08:51:44;;;;;;;24.50;17.63;;;7.30;47.60;;;;;;5011856;28;20595;-68
2022/03/31 08:54:10;;;;;;;29.07;19.60;;;7.20;47.90;;;;;;5009313;28;20466;-68
2022/03/31 08:56:37;;;;;;;25.90;19.00;;;7.30;47.90;;;;;;5009987;28;20460;-67
2022/03/31 08:59:03;;;;;;;27.80;19.33;;;7.50;46.80;;;;;;5011148;28;20983;-68
2022/03/31 09:01:31;;;;;;;27.37;21.67;;;7.40;46.70;;;;;;5010551;28;20459;-68
2022/03/31 09:03:56;;;;;;;29.47;17.90;;;7.40;45.70;;;;;;5010749;28;20184;-67
2022/03/31 09:06:23;;;;;;;29.43;16.77;;;7.50;45.60;;;;;;5011243;28;20456;-67
2022/03/31 09:08:58;;;;;;;26.47;18.93;;;7.40;45.10;;;;;;5010660;28;20211;-67
2022/03/31 09:11:35;;;;;;;27.13;18.37;;;7.40;45.80;;;;;;5009516;28;20841;-68
2022/03/31 09:14:04;;;;;;;27.40;17.13;;;7.50;45.30;;;;;;5010306;28;20462;-68
2022/03/31 09:16:35;;;;;;;38.30;21.00;;;7.70;44.60;;;;;;5009058;28;20442;-67
2022/03/31 09:19:09;;;;;;;28.10;19.93;;;8.00;43.90;;;;;;5009182;28;20466;-67
2022/03/31 09:21:54;;;;;;;28.17;18.73;;;7.90;43.70;;;;;;5002749;28;20521;-67
2022/03/31 09:24:21;;;;;;;20.17;17.23;;;7.80;43.90;;;;;;5002735;28;20431;-68
2022/03/31 09:26:48;;;;;;;23.30;17.17;;;8.30;43.20;;;;;;5003827;28;20432;-67
2022/03/31 09:29:15;;;;;;;24.87;17.30;;;8.10;44.70;;;;;;5001755;28;20451;-68
2022/03/31 09:31:41;;;;;;;23.40;19.47;;;8.40;42.40;;;;;;5011302;28;20463;-68
2022/03/31 09:34:08;;;;;;;21.00;18.73;;;8.70;40.00;;;;;;5014162;28;20517;-67
2022/03/31 09:36:42;;;;;;;23.40;17.77;;;8.70;40.50;;;;;;5014182;28;20510;-67
2022/03/31 09:39:13;;;;;;;20.40;15.27;;;8.90;41.20;;;;;;5008174;28;21025;-67
2022/03/31 09:41:40;;;;;;;21.10;16.33;;;9.50;38.20;;;;;;5010430;28;20850;-68
2022/03/31 09:44:14;;;;;;;20.40;15.77;;;10.00;35.80;;;;;;5014192;28;20426;-68
2022/03/31 09:46:40;;;;;;;23.43;16.23;;;10.50;34.00;;;;;;5013874;28;20466;-68
2022/03/31 09:49:20;;;;;;;22.43;15.50;;;10.70;31.50;;;;;;5014331;28;20438;-68
2022/03/31 09:51:51;;;;;;;19.87;17.87;;;11.40;32.20;;;;;;5014203;28;20466;-67
2022/03/31 09:54:18;;;;;;;22.50;16.87;;;11.10;29.30;;;;;;5013981;28;20454;-67
2022/03/31 09:56:44;;;;;;;20.47;17.90;;;11.20;27.80;;;;;;5012803;28;20963;-67
2022/03/31 09:59:14;;;;;;;17.80;16.00;;;11.30;28.20;;;;;;5013645;28;20446;-67
2022/03/31 10:01:41;;;;;;;22.00;17.73;;;11.00;29.40;;;;;;5013835;28;20919;-67
2022/03/31 10:04:08;;;;;;;21.73;17.23;;;10.40;29.70;;;;;;5013681;28;20545;-68
2022/03/31 10:06:39;;;;;;;22.27;17.57;;;10.40;30.70;;;;;;5013190;28;20429;-67
2022/03/31 10:09:06;;;;;;;17.10;15.53;;;10.20;31.10;;;;;;5013755;28;20525;-67
2022/03/31 10:11:37;;;;;;;22.00;16.87;;;10.50;31.70;;;;;;5013810;28;20431;-67
2022/03/31 10:14:23;;;;;;;21.20;18.30;;;10.30;30.00;;;;;;5014194;28;20474;-67
2022/03/31 10:16:59;;;;;;;24.60;18.10;;;10.60;30.70;;;;;;5010776;28;20430;-67
2022/03/31 10:19:35;;;;;;;19.33;17.13;;;10.80;29.80;;;;;;5013240;28;20468;-67
2022/03/31 10:25:01;;;;;;;18.77;16.33;;;10.10;29.20;;;;;;5013450;28;20464;-67
2022/03/31 10:27:32;;;;;;;22.87;16.20;;;10.60;29.20;;;;;;5015477;28;20522;-66
2022/03/31 10:30:10;;;;;;;15.53;14.07;;;11.30;27.80;;;;;;5015386;28;20523;-67
2022/03/31 10:32:36;;;;;;;19.53;17.30;;;12.00;28.70;;;;;;5013954;28;20853;-68
2022/03/31 10:35:01;;;;;;;17.63;16.00;;;12.40;26.50;;;;;;5013496;28;20521;-67
2022/03/31 10:37:36;;;;;;;20.40;18.27;;;12.60;23.90;;;;;;5013448;28;20190;-68
2022/03/31 10:40:08;;;;;;;20.07;18.20;;;11.90;25.20;;;;;;5013344;28;20199;-68
2022/03/31 10:42:34;;;;;;;19.13;16.93;;;11.10;27.10;;;;;;5013089;28;20441;-68
2022/03/31 10:45:14;;;;;;;19.07;17.07;;;11.10;27.70;;;;;;5013243;28;20425;-67
2022/03/31 10:47:42;;;;;;;17.80;16.10;;;11.50;26.00;;;;;;5013159;28;20916;-67
2022/03/31 10:50:22;;;;;;;20.20;17.17;;;11.70;25.50;;;;;;5012856;28;20442;-68
2022/03/31 10:52:57;;;;;;;20.00;17.97;;;11.70;25.50;;;;;;5013601;28;20473;-68
2022/03/31 10:55:36;;;;;;;19.97;17.70;;;11.40;26.20;;;;;;5012948;28;20426;-68
2022/03/31 10:58:03;;;;;;;20.77;18.57;;;10.70;27.20;;;;;;5013521;28;20427;-68
2022/03/31 11:00:29;;;;;;;17.67;16.20;;;11.00;27.40;;;;;;5028225;28;20461;-68
2022/03/31 11:02:55;;;;;;;18.90;17.00;;;11.20;28.30;;;;;;5012956;28;20502;-69
2022/03/31 11:05:25;;;;;;;18.30;16.40;;;10.80;27.30;;;;;;5012563;28;20186;-68
2022/03/31 11:08:01;;;;;;;17.23;15.40;;;11.00;27.40;;;;;;5012830;28;20422;-68
2022/03/31 11:10:27;;;;;;;18.83;15.43;;;11.30;28.20;;;;;;5012964;28;20442;-68
2022/03/31 11:12:53;;;;;;;17.77;15.50;;;11.40;27.70;;;;;;5013071;28;20459;-68
2022/03/31 11:15:18;;;;;;;16.70;15.20;;;11.80;26.80;;;;;;5012849;28;20183;-68
2022/03/31 11:17:47;;;;;;;18.80;16.87;;;11.70;25.40;;;;;;5012345;28;20559;-68
2022/03/31 11:20:17;;;;;;;19.07;16.67;;;11.80;25.20;;;;;;5013214;28;20219;-67
2022/03/31 11:22:59;;;;;;;18.53;16.70;;;11.40;25.50;;;;;;5012696;28;20418;-67
2022/03/31 11:25:25;;;;;;;19.80;17.97;;;11.20;27.20;;;;;;5012904;28;20833;-68
2022/03/31 11:27:52;;;;;;;18.67;16.70;;;10.80;27.30;;;;;;5012379;28;20418;-67
2022/03/31 11:30:23;;;;;;;20.90;16.83;;;11.20;27.00;;;;;;5011510;28;20957;-68
2022/03/31 11:32:55;;;;;;;18.90;16.90;;;11.20;25.80;;;;;;5012365;28;20459;-68
2022/03/31 11:35:23;;;;;;;21.37;17.77;;;11.20;27.50;;;;;;5002851;28;20979;-68
2022/03/31 11:37:50;;;;;;;18.93;17.03;;;12.00;25.70;;;;;;5012328;28;20414;-68
2022/03/31 11:40:25;;;;;;;19.00;17.03;;;11.90;24.40;;;;;;5012338;28;20437;-68
2022/03/31 11:42:54;;;;;;;16.37;14.70;;;12.10;24.40;;;;;;5012247;28;20428;-68
2022/03/31 11:45:26;;;;;;;18.63;16.73;;;11.50;23.80;;;;;;5012303;28;20520;-68
2022/03/31 11:47:58;;;;;;;18.20;16.50;;;11.70;25.10;;;;;;5012168;28;20422;-67
2022/03/31 11:50:26;;;;;;;18.60;16.80;;;11.20;25.70;;;;;;5011842;28;20544;-67
2022/03/31 11:52:52;;;;;;;22.80;17.43;;;11.40;25.70;;;;;;5011865;28;20462;-67
2022/03/31 11:55:20;;;;;;;18.33;16.73;;;11.50;25.60;;;;;;5011773;28;20431;-71
2022/03/31 11:57:54;;;;;;;18.23;16.50;;;11.50;25.40;;;;;;5011984;28;20450;-68
2022/03/31 12:00:20;;;;;;;20.83;18.80;;;11.50;27.80;;;;;;5012203;28;20444;-67
2022/03/31 12:03:05;;;;;;;21.07;19.07;;;12.10;24.60;;;;;;5012186;28;20413;-68
2022/03/31 12:05:31;;;;;;;22.33;19.10;;;12.60;23.40;;;;;;5011975;28;20437;-68
2022/03/31 12:07:59;;;;;;;19.97;18.00;;;12.90;22.70;;;;;;5011542;28;20423;-70
2022/03/31 12:10:25;;;;;;;21.03;18.80;;;12.60;22.70;;;;;;5004430;28;20232;-67
2022/03/31 12:12:53;;;;;;;20.13;18.20;;;12.80;22.50;;;;;;5010674;28;20458;-69
2022/03/31 12:15:21;;;;;;;19.10;17.30;;;12.80;21.70;;;;;;5012260;28;20423;-68
2022/03/31 12:18:07;;;;;;;21.23;19.27;;;12.50;23.10;;;;;;5015395;28;20452;-68
2022/03/31 12:20:35;;;;;;;18.60;17.10;;;11.80;23.80;;;;;;5019946;28;20480;-68
2022/03/31 12:23:02;;;;;;;22.47;20.20;;;12.10;23.60;;;;;;5017292;28;20439;-68
2022/03/31 12:25:36;;;;;;;18.33;15.57;;;11.70;24.10;;;;;;5010926;28;20509;-68
2022/03/31 12:28:09;;;;;;;17.40;16.00;;;12.40;24.20;;;;;;5012039;28;20794;-68
2022/03/31 12:30:42;;;;;;;19.00;17.30;;;11.60;23.40;;;;;;5012529;28;20829;-67
2022/03/31 12:33:28;;;;;;;16.97;15.43;;;11.70;24.00;;;;;;5012495;28;20973;-67
2022/03/31 12:36:07;;;;;;;21.67;19.00;;;12.00;23.70;;;;;;5011882;28;20923;-68
2022/03/31 12:38:34;;;;;;;17.40;16.00;;;11.70;24.60;;;;;;5011605;28;20438;-68
2022/03/31 12:41:00;;;;;;;18.00;16.27;;;11.00;25.50;;;;;;5012733;28;20566;-68
2022/03/31 12:43:26;;;;;;;23.20;19.03;;;11.30;26.10;;;;;;5012551;28;20533;-70